Time;durP1;ratioP1;P1;durP2;ratioP2;P2;SDS_P1;SDS_P2;PMS_P1;PMS_P2;Temp;Humidity;BMP_temperature;BMP_pressure;BME280_temperature;BME280_humidity;BME280_pressure;Samples;Min_cycle;Max_cycle;Signal;HPM_P1;HPM_P2
2022/10/27 00:01:02;;;;;;;3.50;2.10;;;14.20;99.90;;;;;;5073960;28;20608;-71
2022/10/27 00:03:27;;;;;;;4.40;2.20;;;14.20;99.90;;;;;;5073647;28;20704;-70
2022/10/27 00:05:53;;;;;;;2.30;1.70;;;14.20;99.90;;;;;;5072464;28;20174;-69
2022/10/27 00:08:21;;;;;;;3.53;1.77;;;14.10;99.90;;;;;;5052674;28;20235;-69
2022/10/27 00:10:57;;;;;;;2.80;2.03;;;14.00;99.90;;;;;;5051720;28;20182;-69
2022/10/27 00:13:23;;;;;;;2.03;1.50;;;14.00;99.90;;;;;;5050345;28;20424;-69
2022/10/27 00:15:59;;;;;;;4.40;1.80;;;14.10;99.90;;;;;;5051056;28;20449;-69
2022/10/27 00:18:25;;;;;;;7.13;2.80;;;14.00;99.90;;;;;;5070799;28;20233;-69
2022/10/27 00:21:07;;;;;;;1.73;1.60;;;14.00;99.90;;;;;;5072091;28;20411;-70
2022/10/27 00:23:33;;;;;;;4.23;2.27;;;14.10;99.90;;;;;;5073904;28;20668;-70
2022/10/27 00:26:00;;;;;;;3.30;1.80;;;14.00;99.90;;;;;;5073153;28;20409;-70
2022/10/27 00:28:27;;;;;;;6.37;2.33;;;14.00;99.90;;;;;;5057335;28;20448;-70
2022/10/27 00:30:59;;;;;;;3.70;2.00;;;14.10;99.90;;;;;;5057585;28;20420;-69
2022/10/27 00:33:25;;;;;;;2.87;1.43;;;14.00;99.90;;;;;;5055851;28;20760;-70
2022/10/27 00:35:51;;;;;;;5.47;2.23;;;14.00;99.90;;;;;;5056568;28;20456;-70
2022/10/27 00:38:16;;;;;;;2.87;1.80;;;14.00;99.90;;;;;;5074607;28;20175;-70
2022/10/27 00:40:42;;;;;;;2.07;1.47;;;14.00;99.90;;;;;;5077437;28;20257;-70
2022/10/27 00:43:29;;;;;;;3.17;1.97;;;14.00;99.90;;;;;;5077279;28;20198;-70
2022/10/27 00:46:01;;;;;;;4.77;1.70;;;14.10;99.90;;;;;;5076481;28;20528;-70
2022/10/27 00:48:28;;;;;;;3.53;1.67;;;14.20;99.90;;;;;;5057280;28;20520;-72
2022/10/27 00:50:54;;;;;;;4.60;2.13;;;14.20;99.90;;;;;;5056356;28;20435;-70
2022/10/27 00:53:20;;;;;;;3.93;1.73;;;14.10;99.90;;;;;;5056562;28;20492;-70
2022/10/27 00:55:46;;;;;;;4.10;2.40;;;14.00;99.90;;;;;;5058141;28;20492;-70
2022/10/27 00:58:17;;;;;;;4.10;2.30;;;13.90;99.90;;;;;;5092859;28;20179;-71
2022/10/27 01:00:43;;;;;;;5.03;2.53;;;13.80;99.90;;;;;;5060387;28;20410;-71
2022/10/27 01:03:11;;;;;;;3.23;2.70;;;13.80;99.90;;;;;;5093429;28;20413;-71
2022/10/27 01:05:39;;;;;;;5.80;2.57;;;13.70;99.90;;;;;;5061435;28;20305;-70
2022/10/27 01:08:06;;;;;;;3.50;2.47;;;13.60;99.90;;;;;;5079568;28;20454;-71
2022/10/27 01:10:32;;;;;;;2.93;2.27;;;13.60;99.90;;;;;;5039966;28;20422;-70
2022/10/27 01:12:59;;;;;;;3.87;2.73;;;13.40;99.90;;;;;;5034622;28;20425;-70
2022/10/27 01:15:35;;;;;;;5.37;3.50;;;13.40;99.90;;;;;;5034144;28;20548;-70
2022/10/27 01:18:09;;;;;;;3.90;2.70;;;13.40;99.90;;;;;;5061102;28;20416;-70
2022/10/27 01:21:01;;;;;;;7.33;4.23;;;13.30;99.90;;;;;;5072798;28;20500;-70
2022/10/27 01:23:58;;;;;;;4.83;3.23;;;13.30;99.90;;;;;;5079853;28;20407;-72
2022/10/27 01:26:40;;;;;;;5.83;3.70;;;13.20;99.90;;;;;;5078920;28;20413;-71
2022/10/27 01:29:24;;;;;;;5.50;4.13;;;13.10;99.90;;;;;;5036829;28;20943;-70
2022/10/27 01:32:02;;;;;;;4.90;3.50;;;13.10;99.90;;;;;;5035071;28;20489;-69
2022/10/27 01:34:46;;;;;;;5.63;3.30;;;13.10;99.90;;;;;;5033786;28;21074;-69
2022/10/27 01:37:27;;;;;;;8.20;3.60;;;13.00;99.90;;;;;;5047897;28;20431;-70
2022/10/27 01:40:00;;;;;;;3.93;3.30;;;12.90;99.90;;;;;;5075359;28;20464;-70
2022/10/27 01:42:45;;;;;;;6.20;4.43;;;12.80;99.90;;;;;;5075745;28;20401;-70
2022/10/27 01:45:14;;;;;;;7.50;3.70;;;12.80;99.90;;;;;;5073997;28;20404;-70
2022/10/27 01:47:40;;;;;;;4.90;3.47;;;12.80;99.90;;;;;;5072146;28;20421;-70
2022/10/27 01:50:06;;;;;;;6.47;3.10;;;12.80;99.90;;;;;;5072737;28;20891;-70
2022/10/27 01:52:40;;;;;;;4.13;3.47;;;12.70;99.90;;;;;;5073815;28;20416;-70
2022/10/27 01:55:09;;;;;;;5.30;3.87;;;12.70;99.90;;;;;;5073419;28;20809;-70
2022/10/27 01:57:45;;;;;;;8.10;4.10;;;12.70;99.90;;;;;;5058414;28;20449;-70
2022/10/27 02:00:10;;;;;;;3.97;3.57;;;12.60;99.90;;;;;;5053636;28;20417;-70
2022/10/27 02:02:54;;;;;;;7.40;4.27;;;12.60;99.90;;;;;;5057112;28;20424;-70
2022/10/27 02:05:35;;;;;;;8.50;4.90;;;12.60;99.90;;;;;;5093639;28;20208;-69
2022/10/27 02:08:08;;;;;;;8.07;4.87;;;12.60;99.90;;;;;;5074855;28;20429;-70
2022/10/27 02:10:49;;;;;;;7.63;4.33;;;12.60;99.90;;;;;;5040633;28;20413;-69
2022/10/27 02:13:16;;;;;;;7.53;4.73;;;12.50;99.90;;;;;;5035116;28;20402;-70
2022/10/27 02:15:51;;;;;;;7.10;4.50;;;12.50;99.90;;;;;;5033087;28;20852;-70
2022/10/27 02:18:23;;;;;;;8.00;4.70;;;12.50;99.90;;;;;;5042114;28;20417;-70
2022/10/27 02:20:52;;;;;;;9.13;5.43;;;12.50;99.90;;;;;;5092843;28;20413;-71
2022/10/27 02:23:20;;;;;;;6.83;5.30;;;12.50;99.90;;;;;;5060058;28;20410;-70
2022/10/27 02:26:01;;;;;;;5.43;4.87;;;12.50;99.90;;;;;;5060083;28;20436;-71
2022/10/27 02:28:38;;;;;;;21.77;6.20;;;12.50;99.90;;;;;;5037805;28;20446;-69
2022/10/27 02:31:06;;;;;;;8.00;5.30;;;12.50;99.90;;;;;;5033091;28;20402;-69
2022/10/27 02:33:32;;;;;;;4.93;4.43;;;12.40;99.90;;;;;;5033078;28;20413;-69
2022/10/27 02:35:57;;;;;;;10.27;5.90;;;12.40;99.90;;;;;;5034037;28;20449;-70
2022/10/27 02:38:23;;;;;;;12.63;6.30;;;12.40;99.90;;;;;;5072839;28;20555;-69
2022/10/27 02:40:49;;;;;;;9.87;6.23;;;12.40;99.90;;;;;;5072800;28;20166;-69
2022/10/27 02:43:14;;;;;;;7.70;5.20;;;12.40;99.90;;;;;;5072891;28;20178;-69
2022/10/27 02:45:40;;;;;;;9.00;5.80;;;12.40;99.90;;;;;;5071299;28;20547;-69
2022/10/27 02:48:05;;;;;;;7.23;4.37;;;12.40;99.90;;;;;;5056973;28;20171;-69
2022/10/27 02:50:31;;;;;;;6.50;5.47;;;12.40;99.90;;;;;;5052053;28;20187;-69
2022/10/27 02:52:56;;;;;;;8.80;5.87;;;12.30;99.90;;;;;;5052725;28;20169;-71
2022/10/27 02:55:22;;;;;;;8.50;5.53;;;12.30;99.90;;;;;;5052315;28;20191;-70
2022/10/27 02:57:47;;;;;;;9.97;6.50;;;12.30;99.90;;;;;;5069127;28;20170;-71
2022/10/27 03:00:13;;;;;;;6.93;5.67;;;12.20;99.90;;;;;;5078449;28;20178;-69
2022/10/27 03:02:39;;;;;;;11.80;6.00;;;12.20;99.90;;;;;;5072162;28;20167;-69
2022/10/27 03:05:05;;;;;;;6.70;5.53;;;12.20;99.90;;;;;;5072088;28;20423;-69
2022/10/27 03:07:30;;;;;;;6.07;4.87;;;12.10;99.90;;;;;;5062735;28;20170;-69
2022/10/27 03:09:56;;;;;;;6.20;4.50;;;12.20;99.90;;;;;;5052214;28;20421;-70
2022/10/27 03:12:21;;;;;;;8.87;5.10;;;12.10;99.90;;;;;;5052290;28;20175;-71
2022/10/27 03:14:47;;;;;;;11.27;5.87;;;12.00;99.90;;;;;;5067793;28;20690;-71
2022/10/27 03:17:12;;;;;;;6.43;4.60;;;12.00;99.90;;;;;;5077450;28;20263;-71
2022/10/27 03:19:38;;;;;;;6.10;4.50;;;12.10;99.90;;;;;;5077342;28;20190;-70
2022/10/27 03:22:03;;;;;;;7.10;4.23;;;12.00;99.90;;;;;;5074922;28;20240;-70
2022/10/27 03:24:29;;;;;;;9.80;5.37;;;12.00;99.90;;;;;;5077300;28;20182;-70
2022/10/27 03:26:54;;;;;;;6.80;4.70;;;12.00;99.90;;;;;;5072810;28;20257;-70
2022/10/27 03:29:20;;;;;;;7.10;3.93;;;11.90;99.90;;;;;;5071956;28;20294;-69
2022/10/27 03:31:45;;;;;;;7.70;5.33;;;11.90;99.90;;;;;;5072309;28;20253;-71
2022/10/27 03:34:11;;;;;;;7.40;3.90;;;11.90;99.90;;;;;;5058715;28;20195;-70
2022/10/27 03:36:36;;;;;;;5.20;3.57;;;11.90;99.90;;;;;;5051920;28;20229;-70
2022/10/27 03:39:02;;;;;;;7.80;3.87;;;11.90;99.90;;;;;;5053191;28;20190;-70
2022/10/27 03:41:28;;;;;;;16.77;4.83;;;11.90;99.90;;;;;;5053519;28;20191;-69
2022/10/27 03:43:53;;;;;;;8.40;4.17;;;11.90;99.90;;;;;;5060274;28;20423;-71
2022/10/27 03:46:19;;;;;;;6.27;4.00;;;11.90;99.90;;;;;;5074536;28;20170;-71
2022/10/27 03:48:44;;;;;;;7.83;4.67;;;11.90;99.90;;;;;;5074541;28;20190;-70
2022/10/27 03:51:10;;;;;;;5.80;3.97;;;11.80;99.90;;;;;;5071937;28;20169;-70
2022/10/27 03:53:35;;;;;;;9.37;4.73;;;11.90;99.90;;;;;;5072070;28;20178;-71
2022/10/27 03:56:01;;;;;;;6.70;4.30;;;11.80;99.90;;;;;;5091761;28;20202;-71
2022/10/27 03:58:26;;;;;;;10.93;4.03;;;11.80;99.90;;;;;;5057924;28;20237;-71
2022/10/27 04:00:52;;;;;;;5.37;3.37;;;11.80;99.90;;;;;;5051775;28;20597;-70
2022/10/27 04:03:18;;;;;;;16.73;4.33;;;11.90;99.90;;;;;;5059767;28;20166;-69
2022/10/27 04:05:43;;;;;;;10.73;3.87;;;11.90;99.90;;;;;;5075343;28;20171;-69
2022/10/27 04:08:08;;;;;;;5.17;3.83;;;11.80;99.90;;;;;;5075468;28;20253;-69
2022/10/27 04:10:34;;;;;;;6.90;3.90;;;11.80;99.90;;;;;;5075656;28;20192;-69
2022/10/27 04:12:59;;;;;;;7.73;3.47;;;11.80;99.90;;;;;;5073075;28;20175;-70
2022/10/27 04:15:26;;;;;;;4.57;3.40;;;11.80;99.90;;;;;;5054003;28;20289;-70
2022/10/27 04:17:54;;;;;;;6.40;5.70;;;11.80;99.90;;;;;;5055621;28;20230;-70
2022/10/27 04:20:19;;;;;;;7.00;4.03;;;11.80;99.90;;;;;;5055500;28;20783;-69
2022/10/27 04:22:45;;;;;;;6.43;4.03;;;11.70;99.90;;;;;;5055433;28;20412;-69
2022/10/27 04:25:10;;;;;;;3.90;3.50;;;11.70;99.90;;;;;;5035314;28;20338;-69
2022/10/27 04:27:36;;;;;;;8.43;4.50;;;11.80;99.90;;;;;;5035436;28;20172;-70
2022/10/27 04:30:02;;;;;;;5.37;3.27;;;11.70;99.90;;;;;;5041123;28;20278;-70
2022/10/27 04:32:27;;;;;;;8.17;3.60;;;11.70;99.90;;;;;;5078114;28;20198;-69
2022/10/27 04:34:53;;;;;;;5.13;3.20;;;11.80;99.90;;;;;;5073704;28;20607;-69
2022/10/27 04:37:18;;;;;;;11.63;4.00;;;11.70;99.90;;;;;;5075236;28;20177;-70
2022/10/27 04:39:44;;;;;;;3.30;2.97;;;11.70;99.90;;;;;;5076720;28;20182;-70
2022/10/27 04:42:10;;;;;;;13.60;4.27;;;11.70;99.90;;;;;;5076541;28;20163;-70
2022/10/27 04:44:35;;;;;;;4.80;3.10;;;11.70;99.90;;;;;;5060771;28;20171;-70
2022/10/27 04:47:01;;;;;;;6.33;4.03;;;11.70;99.90;;;;;;5096040;28;20951;-71
2022/10/27 04:49:27;;;;;;;4.50;3.90;;;11.70;99.90;;;;;;5063260;28;20240;-70
2022/10/27 04:51:52;;;;;;;4.57;3.87;;;11.70;99.90;;;;;;5094693;28;20167;-71
2022/10/27 04:54:18;;;;;;;6.37;3.00;;;11.70;99.90;;;;;;5078813;28;20203;-71
2022/10/27 04:56:43;;;;;;;8.73;3.90;;;11.60;99.90;;;;;;5038477;28;20221;-69
2022/10/27 04:59:09;;;;;;;4.60;3.80;;;11.60;99.90;;;;;;5034869;28;20192;-69
2022/10/27 05:01:35;;;;;;;3.60;3.00;;;11.60;99.90;;;;;;5060177;28;20181;-71
2022/10/27 05:04:00;;;;;;;5.57;3.27;;;11.60;99.90;;;;;;5075103;28;20408;-70
2022/10/27 05:06:26;;;;;;;5.50;3.53;;;11.60;99.90;;;;;;5074424;28;20512;-70
2022/10/27 05:08:51;;;;;;;6.27;3.20;;;11.50;99.90;;;;;;5075457;28;20194;-71
2022/10/27 05:11:17;;;;;;;4.30;3.63;;;11.60;99.90;;;;;;5067238;28;20182;-70
2022/10/27 05:13:42;;;;;;;4.97;3.00;;;11.60;99.90;;;;;;5054639;28;20198;-71
2022/10/27 05:16:08;;;;;;;8.67;4.10;;;11.60;99.90;;;;;;5062367;28;20208;-70
2022/10/27 05:18:33;;;;;;;5.50;3.10;;;11.50;99.90;;;;;;5088865;28;20190;-71
2022/10/27 05:20:59;;;;;;;9.13;3.40;;;11.50;99.90;;;;;;5064147;28;20665;-70
2022/10/27 05:23:25;;;;;;;4.70;3.33;;;11.60;99.90;;;;;;5075017;28;20646;-69
2022/10/27 05:25:55;;;;;;;5.77;3.80;;;11.60;99.90;;;;;;5074173;28;20170;-69
2022/10/27 05:28:21;;;;;;;9.40;3.80;;;11.60;99.90;;;;;;5073136;28;20755;-70
2022/10/27 05:30:47;;;;;;;4.63;3.30;;;11.60;99.90;;;;;;5066648;28;20492;-69
2022/10/27 05:33:12;;;;;;;6.20;3.23;;;11.50;99.90;;;;;;5086741;28;20513;-70
2022/10/27 05:35:38;;;;;;;9.20;4.40;;;11.50;99.90;;;;;;5087892;28;20203;-70
2022/10/27 05:38:06;;;;;;;5.17;3.43;;;11.50;99.90;;;;;;5053172;28;20834;-70
2022/10/27 05:40:34;;;;;;;11.60;3.77;;;11.60;99.90;;;;;;5061648;28;20584;-69
2022/10/27 05:43:01;;;;;;;4.50;3.00;;;11.50;99.90;;;;;;5074197;28;20477;-69
2022/10/27 05:45:27;;;;;;;4.90;3.10;;;11.60;99.90;;;;;;5073704;28;20404;-70
2022/10/27 05:48:00;;;;;;;3.03;2.70;;;11.50;99.90;;;;;;5082739;28;20415;-72
2022/10/27 05:50:28;;;;;;;6.47;3.80;;;11.40;99.90;;;;;;5074122;28;20218;-71
2022/10/27 05:52:53;;;;;;;6.37;3.50;;;11.40;99.90;;;;;;5064290;28;20402;-71
2022/10/27 05:55:19;;;;;;;5.60;3.33;;;11.40;99.90;;;;;;5062687;28;20455;-70
2022/10/27 05:57:59;;;;;;;5.50;3.40;;;11.40;99.90;;;;;;5053730;28;20170;-70
2022/10/27 06:00:29;;;;;;;9.60;2.90;;;11.50;99.90;;;;;;5059770;28;20197;-71
2022/10/27 06:02:56;;;;;;;5.40;2.83;;;11.50;99.90;;;;;;5074168;28;20411;-70
2022/10/27 06:05:21;;;;;;;6.30;3.50;;;11.50;99.90;;;;;;5073400;28;20409;-69
2022/10/27 06:07:47;;;;;;;5.60;3.37;;;11.50;99.90;;;;;;5074344;28;20408;-70
2022/10/27 06:10:13;;;;;;;6.90;3.50;;;11.50;99.90;;;;;;5071823;28;20195;-71
2022/10/27 06:12:38;;;;;;;5.97;3.37;;;11.40;99.90;;;;;;5062756;28;20291;-70
2022/10/27 06:15:05;;;;;;;3.67;2.83;;;11.40;99.90;;;;;;5061942;28;20191;-70
2022/10/27 06:17:31;;;;;;;9.40;2.97;;;11.40;99.90;;;;;;5060172;28;20167;-70
2022/10/27 06:19:56;;;;;;;10.73;3.93;;;11.40;99.90;;;;;;5056475;28;20479;-70
2022/10/27 06:22:22;;;;;;;9.70;6.07;;;11.50;99.90;;;;;;5073350;28;20249;-69
2022/10/27 06:24:47;;;;;;;16.70;5.90;;;11.50;99.90;;;;;;5072499;28;20174;-70
2022/10/27 06:27:13;;;;;;;6.60;2.90;;;11.50;99.90;;;;;;5073508;28;20250;-69
2022/10/27 06:29:38;;;;;;;5.23;2.70;;;11.60;99.90;;;;;;5073157;28;20182;-71
2022/10/27 06:32:04;;;;;;;7.97;3.20;;;11.60;99.90;;;;;;5052838;28;20236;-69
2022/10/27 06:34:29;;;;;;;5.07;2.93;;;11.60;99.90;;;;;;5055843;28;20675;-71
2022/10/27 06:36:55;;;;;;;6.37;2.80;;;11.60;99.90;;;;;;5060231;28;20198;-70
2022/10/27 06:39:20;;;;;;;4.17;3.47;;;11.60;99.90;;;;;;5052990;28;20663;-69
2022/10/27 06:41:46;;;;;;;6.13;2.57;;;11.70;99.90;;;;;;5072699;28;20671;-71
2022/10/27 06:44:11;;;;;;;5.57;3.10;;;11.80;99.90;;;;;;5077034;28;20178;-69
2022/10/27 06:46:38;;;;;;;11.07;3.73;;;11.80;99.90;;;;;;5072682;28;20201;-69
2022/10/27 06:49:04;;;;;;;6.50;3.50;;;11.90;99.90;;;;;;5072598;28;20197;-69
2022/10/27 06:51:30;;;;;;;3.73;2.80;;;11.90;99.90;;;;;;5058271;28;20425;-69
2022/10/27 06:53:56;;;;;;;3.40;2.30;;;11.90;99.90;;;;;;5053186;28;20464;-70
2022/10/27 06:56:21;;;;;;;3.20;2.90;;;12.00;99.90;;;;;;5057613;28;20202;-71
2022/10/27 06:58:47;;;;;;;4.83;3.20;;;12.00;99.90;;;;;;5072574;28;20182;-69
2022/10/27 07:01:13;;;;;;;7.00;4.10;;;11.90;99.90;;;;;;5071993;28;20606;-71
2022/10/27 07:03:39;;;;;;;6.30;3.00;;;12.00;99.90;;;;;;5074384;28;20451;-71
2022/10/27 07:06:05;;;;;;;5.70;3.50;;;12.10;99.90;;;;;;5068936;28;20251;-70
2022/10/27 07:08:31;;;;;;;4.70;2.90;;;12.10;99.90;;;;;;5052384;28;20239;-71
2022/10/27 07:10:56;;;;;;;7.77;2.77;;;12.10;99.90;;;;;;5052400;28;20413;-70
2022/10/27 07:13:22;;;;;;;7.70;3.60;;;12.20;99.90;;;;;;5052378;28;20174;-71
2022/10/27 07:15:48;;;;;;;5.20;3.80;;;12.20;99.90;;;;;;5050843;28;20199;-70
2022/10/27 07:18:13;;;;;;;5.13;3.17;;;12.30;99.90;;;;;;5071629;28;20607;-71
2022/10/27 07:20:39;;;;;;;7.83;3.43;;;12.30;99.90;;;;;;5072227;28;20220;-69
2022/10/27 07:23:09;;;;;;;5.90;3.37;;;12.40;99.90;;;;;;5072225;28;20227;-69
2022/10/27 07:25:35;;;;;;;7.57;4.77;;;12.40;99.90;;;;;;5074097;28;20470;-70
2022/10/27 07:28:02;;;;;;;5.73;2.93;;;12.50;99.90;;;;;;5060089;28;20417;-70
2022/10/27 07:30:33;;;;;;;10.40;3.50;;;12.60;99.90;;;;;;5090876;28;20448;-71
2022/10/27 07:32:59;;;;;;;7.87;4.73;;;12.70;99.90;;;;;;5091024;28;20421;-71
2022/10/27 07:35:25;;;;;;;9.00;4.33;;;12.80;99.90;;;;;;5090480;28;20471;-71
2022/10/27 07:37:51;;;;;;;4.50;3.40;;;12.90;99.90;;;;;;5074548;28;20174;-70
2022/10/27 07:40:18;;;;;;;5.10;3.40;;;13.00;99.90;;;;;;5078247;28;20436;-71
2022/10/27 07:42:49;;;;;;;6.83;4.50;;;13.10;99.90;;;;;;5077568;28;20416;-71
2022/10/27 07:45:17;;;;;;;7.93;4.73;;;13.20;99.90;;;;;;5072470;28;20427;-71
2022/10/27 07:47:44;;;;;;;10.77;4.10;;;13.40;99.90;;;;;;5056889;28;20432;-70
2022/10/27 07:50:10;;;;;;;6.10;3.40;;;13.60;99.90;;;;;;5083851;28;20484;-71
2022/10/27 07:52:46;;;;;;;3.20;2.70;;;13.70;99.90;;;;;;5051879;28;20417;-71
2022/10/27 07:55:13;;;;;;;5.40;3.73;;;13.90;99.90;;;;;;5051457;28;20502;-70
2022/10/27 07:57:40;;;;;;;5.10;2.70;;;14.00;99.90;;;;;;5065419;28;20447;-71
2022/10/27 08:00:08;;;;;;;5.60;2.80;;;14.10;99.90;;;;;;5070241;28;20432;-71
2022/10/27 08:02:34;;;;;;;8.00;3.23;;;14.30;99.90;;;;;;5071792;28;20404;-71
2022/10/27 08:04:59;;;;;;;3.90;2.97;;;14.60;99.90;;;;;;5071528;28;20466;-71
2022/10/27 08:07:25;;;;;;;7.63;3.37;;;14.90;99.90;;;;;;5057151;28;20183;-71
2022/10/27 08:09:50;;;;;;;2.50;2.20;;;15.30;99.90;;;;;;5051609;28;20194;-71
2022/10/27 08:12:16;;;;;;;3.73;2.40;;;15.90;99.90;;;;;;5051618;28;20213;-71
2022/10/27 08:14:41;;;;;;;2.60;2.07;;;16.70;99.90;;;;;;5051465;28;20198;-71
2022/10/27 08:17:07;;;;;;;2.83;2.20;;;17.50;99.90;;;;;;5052775;28;20175;-71
2022/10/27 08:19:33;;;;;;;2.60;2.00;;;18.40;99.90;;;;;;5052652;28;20192;-71
2022/10/27 08:21:58;;;;;;;5.90;3.07;;;19.00;99.90;;;;;;5052976;28;20539;-71
2022/10/27 08:24:23;;;;;;;3.20;1.60;;;19.40;99.90;;;;;;5064609;28;20189;-71
2022/10/27 08:26:49;;;;;;;3.53;2.87;;;19.80;99.90;;;;;;5071868;28;20171;-71
2022/10/27 08:29:14;;;;;;;2.30;2.03;;;20.10;99.90;;;;;;5071489;28;20685;-71
2022/10/27 08:31:40;;;;;;;2.60;2.17;;;20.20;99.90;;;;;;5071593;28;20170;-71
2022/10/27 08:34:05;;;;;;;3.37;2.07;;;20.70;99.90;;;;;;5061357;28;20175;-72
2022/10/27 08:36:37;;;;;;;5.40;2.30;;;20.70;99.90;;;;;;5051269;28;20529;-71
2022/10/27 08:39:04;;;;;;;2.80;1.80;;;21.10;99.90;;;;;;5051394;28;20206;-69
2022/10/27 08:41:49;;;;;;;2.30;1.70;;;21.40;99.90;;;;;;5051447;28;20467;-69
2022/10/27 08:44:44;;;;;;;2.33;1.80;;;21.60;99.90;;;;;;5061974;28;20428;-69
2022/10/27 08:47:19;;;;;;;5.33;2.20;;;21.80;99.90;;;;;;5068174;28;20412;-69
2022/10/27 08:50:07;;;;;;;5.50;3.53;;;21.70;99.90;;;;;;5074865;28;21143;-68
2022/10/27 08:52:40;;;;;;;3.63;2.50;;;21.70;99.90;;;;;;5073694;28;20499;-69
2022/10/27 08:55:12;;;;;;;3.57;1.83;;;21.80;99.90;;;;;;5054919;28;20452;-69
2022/10/27 08:57:41;;;;;;;3.73;1.53;;;21.80;99.90;;;;;;5054943;28;20397;-68
2022/10/27 09:00:12;;;;;;;1.93;1.53;;;21.60;99.90;;;;;;5054612;28;20964;-68
2022/10/27 09:02:57;;;;;;;2.83;1.87;;;21.90;99.90;;;;;;5086781;28;20417;-68
2022/10/27 09:05:53;;;;;;;4.20;1.80;;;22.20;99.90;;;;;;5066613;28;20405;-68
2022/10/27 09:08:24;;;;;;;4.90;2.00;;;22.40;99.90;;;;;;5034686;28;20790;-68
2022/10/27 09:11:15;;;;;;;1.77;1.43;;;22.50;99.90;;;;;;5034629;28;20398;-68
2022/10/27 09:13:44;;;;;;;2.90;1.50;;;22.40;99.90;;;;;;5041054;28;20827;-68
2022/10/27 09:16:16;;;;;;;3.70;1.63;;;22.70;99.90;;;;;;5054179;28;20798;-69
2022/10/27 09:18:52;;;;;;;4.33;1.60;;;22.60;99.90;;;;;;5054461;28;20424;-69
2022/10/27 09:21:21;;;;;;;4.40;1.47;;;22.60;99.90;;;;;;5054487;28;20411;-69
2022/10/27 09:23:52;;;;;;;8.70;2.17;;;22.20;99.90;;;;;;5057548;28;21006;-69
2022/10/27 09:26:21;;;;;;;2.03;1.50;;;21.70;99.90;;;;;;5053908;28;20907;-71
2022/10/27 09:28:50;;;;;;;1.67;1.33;;;21.80;99.90;;;;;;5086574;28;20433;-71
2022/10/27 09:31:20;;;;;;;2.80;1.50;;;21.90;99.90;;;;;;5053993;28;20496;-71
2022/10/27 09:33:58;;;;;;;3.27;1.80;;;21.90;99.90;;;;;;5059807;28;20416;-71
2022/10/27 09:36:24;;;;;;;1.90;1.30;;;22.40;99.90;;;;;;5074146;28;21150;-71
2022/10/27 09:38:49;;;;;;;1.70;1.40;;;22.60;99.90;;;;;;5073838;28;20417;-71
2022/10/27 09:41:15;;;;;;;3.57;1.87;;;22.60;99.90;;;;;;5073920;28;20162;-71
2022/10/27 09:43:41;;;;;;;1.90;1.70;;;22.80;99.90;;;;;;5067546;28;20173;-71
2022/10/27 09:46:26;;;;;;;3.37;1.30;;;23.30;99.90;;;;;;5056847;28;20402;-72
2022/10/27 09:48:55;;;;;;;2.83;1.80;;;23.60;99.90;;;;;;5094005;28;20234;-72
2022/10/27 09:51:33;;;;;;;2.30;2.10;;;23.70;99.90;;;;;;5059953;28;20419;-72
2022/10/27 09:54:02;;;;;;;5.53;1.47;;;23.90;99.90;;;;;;5083261;28;20418;-71
2022/10/27 09:56:30;;;;;;;6.87;2.07;;;24.50;99.90;;;;;;5055627;28;20504;-72
2022/10/27 09:59:02;;;;;;;1.40;1.10;;;25.20;99.90;;;;;;5095499;28;20460;-71
2022/10/27 10:01:48;;;;;;;7.43;1.57;;;25.80;99.90;;;;;;5099016;28;20448;-72
2022/10/27 10:04:45;;;;;;;2.63;2.10;;;26.10;99.90;;;;;;5075132;28;20924;-70
2022/10/27 10:07:30;;;;;;;2.73;1.30;;;26.40;99.90;;;;;;5074426;28;20420;-68
2022/10/27 10:10:24;;;;;;;4.57;1.63;;;26.70;98.90;;;;;;5073544;28;20483;-68
2022/10/27 10:13:02;;;;;;;4.53;2.03;;;26.80;95.70;;;;;;5071233;28;20827;-68
2022/10/27 10:15:28;;;;;;;1.90;1.30;;;26.70;94.50;;;;;;5080277;28;20484;-69
2022/10/27 10:18:00;;;;;;;3.53;1.50;;;27.40;95.40;;;;;;5035218;28;20403;-69
2022/10/27 10:20:41;;;;;;;2.50;1.60;;;27.60;91.90;;;;;;5047173;28;20536;-69
2022/10/27 10:23:18;;;;;;;2.40;1.50;;;28.00;92.10;;;;;;5055252;28;20769;-69
2022/10/27 10:25:46;;;;;;;2.33;1.60;;;27.90;90.60;;;;;;5055230;28;20405;-69
2022/10/27 10:28:23;;;;;;;2.60;1.57;;;27.60;90.10;;;;;;5055243;28;20410;-69
2022/10/27 10:30:54;;;;;;;2.37;1.43;;;27.50;89.70;;;;;;5072274;28;20432;-70
2022/10/27 10:33:23;;;;;;;2.30;1.50;;;27.20;90.90;;;;;;5082124;28;20428;-70
2022/10/27 10:35:50;;;;;;;5.23;1.57;;;27.20;90.70;;;;;;5075413;28;20463;-69
2022/10/27 10:38:22;;;;;;;4.87;2.30;;;27.80;91.80;;;;;;5072121;28;20447;-69
2022/10/27 10:41:14;;;;;;;3.50;1.50;;;28.50;91.40;;;;;;5061043;28;20409;-70
2022/10/27 10:43:40;;;;;;;10.17;2.00;;;28.50;87.00;;;;;;5096860;28;20424;-69
2022/10/27 10:46:20;;;;;;;3.13;1.70;;;28.30;82.30;;;;;;5051715;28;20429;-69
2022/10/27 10:48:57;;;;;;;3.20;1.57;;;27.90;83.70;;;;;;5053215;28;20244;-70
2022/10/27 10:51:48;;;;;;;2.00;1.70;;;27.70;86.40;;;;;;5079925;28;21002;-69
2022/10/27 10:54:38;;;;;;;4.10;1.73;;;27.70;86.10;;;;;;5074786;28;20422;-68
2022/10/27 10:57:19;;;;;;;2.07;1.30;;;28.20;87.50;;;;;;5040522;28;20874;-70
2022/10/27 10:59:46;;;;;;;5.10;1.47;;;27.80;85.60;;;;;;5041332;28;20488;-70
2022/10/27 11:02:32;;;;;;;3.37;1.50;;;27.50;84.90;;;;;;5073666;28;20893;-69
2022/10/27 11:05:13;;;;;;;2.30;1.70;;;27.60;86.50;;;;;;5073044;28;20483;-69
2022/10/27 11:07:39;;;;;;;5.53;1.60;;;28.00;87.50;;;;;;5074847;28;20960;-69
2022/10/27 11:10:24;;;;;;;3.00;1.30;;;28.00;86.70;;;;;;5068909;28;20445;-69
2022/10/27 11:12:55;;;;;;;3.23;1.57;;;28.10;85.00;;;;;;5087246;28;20417;-69
2022/10/27 11:15:30;;;;;;;1.80;1.30;;;28.00;86.10;;;;;;5054732;28;20472;-70
2022/10/27 11:18:01;;;;;;;1.87;1.10;;;27.90;86.60;;;;;;5055102;28;20524;-70
2022/10/27 11:20:32;;;;;;;2.23;1.30;;;28.10;85.30;;;;;;5061549;28;20437;-70
2022/10/27 11:22:59;;;;;;;2.67;1.10;;;28.60;86.60;;;;;;5074053;28;20412;-70
2022/10/27 11:25:29;;;;;;;4.20;2.10;;;28.80;82.60;;;;;;5074837;28;20415;-70
2022/10/27 11:28:21;;;;;;;1.90;1.60;;;29.50;79.10;;;;;;5074769;28;20413;-70
2022/10/27 11:31:08;;;;;;;4.60;1.77;;;29.70;76.90;;;;;;5067934;28;20930;-69
2022/10/27 11:33:37;;;;;;;2.43;1.97;;;29.20;76.20;;;;;;5054488;28;21016;-70
2022/10/27 11:36:07;;;;;;;3.77;1.97;;;28.90;76.40;;;;;;5085977;28;20537;-70
2022/10/27 11:38:39;;;;;;;2.47;1.50;;;28.70;76.20;;;;;;5055527;28;20489;-70
2022/10/27 11:41:30;;;;;;;3.30;1.53;;;28.70;79.10;;;;;;5063146;28;20901;-70
2022/10/27 11:44:03;;;;;;;4.67;1.93;;;29.40;78.90;;;;;;5072035;28;20519;-70
2022/10/27 11:46:35;;;;;;;2.33;1.20;;;30.00;74.20;;;;;;5079427;28;20416;-70
2022/10/27 11:49:28;;;;;;;4.30;1.40;;;29.90;74.80;;;;;;5079184;28;20948;-70
2022/10/27 11:51:59;;;;;;;3.73;1.50;;;30.30;74.90;;;;;;5056887;28;20425;-69
2022/10/27 11:54:25;;;;;;;2.53;1.40;;;31.20;72.80;;;;;;5051465;28;20459;-70
2022/10/27 11:57:16;;;;;;;5.83;1.50;;;31.60;69.80;;;;;;5051833;28;20413;-70
2022/10/27 12:00:09;;;;;;;4.07;1.60;;;31.40;67.50;;;;;;5051790;28;20922;-69
2022/10/27 12:03:05;;;;;;;2.10;1.57;;;31.40;64.40;;;;;;5070975;28;20455;-70
2022/10/27 12:05:55;;;;;;;2.57;1.70;;;31.40;66.50;;;;;;5071573;28;20790;-70
2022/10/27 12:08:34;;;;;;;2.10;1.53;;;31.20;64.80;;;;;;5070206;28;20516;-70
2022/10/27 12:11:11;;;;;;;5.23;1.60;;;30.90;65.00;;;;;;5065698;28;20416;-70
2022/10/27 12:13:54;;;;;;;5.30;2.00;;;30.30;64.30;;;;;;5051601;28;20775;-70
2022/10/27 12:16:38;;;;;;;3.10;1.50;;;29.90;66.90;;;;;;5051318;28;20460;-70
2022/10/27 12:19:16;;;;;;;6.90;2.00;;;29.40;69.20;;;;;;5053803;28;20413;-71
2022/10/27 12:21:51;;;;;;;3.03;2.23;;;29.20;70.40;;;;;;5064887;28;20424;-70
2022/10/27 12:24:42;;;;;;;6.00;2.10;;;28.70;72.30;;;;;;5075965;28;20404;-70
2022/10/27 12:27:20;;;;;;;2.73;1.73;;;28.30;73.20;;;;;;5076691;28;20404;-69
2022/10/27 12:29:48;;;;;;;3.17;2.10;;;27.90;76.60;;;;;;5075236;28;20789;-69
2022/10/27 12:32:29;;;;;;;4.10;1.90;;;27.00;79.50;;;;;;5064034;28;20901;-70
2022/10/27 12:35:07;;;;;;;3.30;2.07;;;26.20;84.90;;;;;;5076622;28;20813;-69
2022/10/27 12:37:54;;;;;;;6.70;2.30;;;25.40;93.40;;;;;;5075535;28;20404;-70
2022/10/27 12:40:50;;;;;;;5.10;1.63;;;24.80;99.90;;;;;;5076951;28;20432;-70
2022/10/27 12:43:18;;;;;;;4.40;2.30;;;24.20;99.90;;;;;;5065092;28;20440;-69
2022/10/27 12:46:08;;;;;;;7.17;1.67;;;24.00;99.90;;;;;;5054762;28;20401;-69
2022/10/27 12:48:38;;;;;;;9.73;2.23;;;23.90;99.90;;;;;;5054994;28;20493;-69
2022/10/27 12:51:35;;;;;;;4.13;2.03;;;23.70;99.90;;;;;;5055066;28;20409;-69
2022/10/27 12:54:11;;;;;;;2.03;1.67;;;23.70;99.90;;;;;;5070840;28;20420;-69
2022/10/27 12:56:51;;;;;;;4.87;2.80;;;23.80;99.90;;;;;;5073881;28;20933;-69
2022/10/27 12:59:27;;;;;;;3.70;3.10;;;23.70;99.90;;;;;;5074785;28;20420;-69
2022/10/27 13:01:57;;;;;;;3.30;2.13;;;23.80;99.90;;;;;;5074997;28;20403;-69
2022/10/27 13:04:28;;;;;;;3.87;2.07;;;24.50;99.90;;;;;;5054074;28;20482;-69